Terminal Aerodrome Forecast
Issued by NWS Huntsville, AL

Home | Current Version | Previous Version | Text Only | Print | Product List | Glossary On
Versions: 1 2 3 4 5 6 7 8 9 10 11 12 13 14 15 16 17 18 19 20 21 22 23 24 25 26 27 28 29 30 31
000
FTUS44 KHUN 301120
TAFHSV
TAF
KHSV 301120Z 3012/0112 VRB04KT P6SM SCT100 BKN250
     FM301500 18010KT P6SM SCT050 BKN100
     FM301800 17012G17KT P6SM SCT040 BKN080
     FM302000 16014G22KT P6SM VCTS BKN040CB
      TEMPO 3020/3024 VRB15G25KT 4SM TSRA OVC025CB
     FM010100 18007KT P6SM VCSH SCT050 BKN120=

USA.gov is the U.S. government's official web portal to all federal, state and local government web resources and services.